Time,TemperatureF,DewpointF,PressureIn,WindDirection,WindDirectionDegrees,WindSpeedMPH,WindSpeedGustMPH,Humidity,HourlyPrecipIn,Conditions,Clouds,dailyrainin,SoftwareType,DateUTC
2013-03-10 00:01:00,43.4,41.5,29.46,SSE,158,1.6,2.2,93,0.19,,,0.00,WUHU216HW,2013-03-10 06:01:00,
2013-03-10 00:06:00,43.5,41.6,29.45,SE,133,1.5,2.2,93,0.19,,,0.01,WUHU216HW,2013-03-10 06:06:00,
2013-03-10 00:11:00,43.7,42.1,29.45,SE,144,2.0,2.7,94,0.20,,,0.01,WUHU216HW,2013-03-10 06:11:00,
2013-03-10 00:16:00,43.9,42.3,29.45,SSE,158,2.5,3.1,94,0.22,,,0.03,WUHU216HW,2013-03-10 06:16:00,
2013-03-10 00:21:00,44.1,42.5,29.45,ESE,113,2.5,3.1,94,0.19,,,0.03,WUHU216HW,2013-03-10 06:21:00,
2013-03-10 00:26:00,44.4,42.7,29.45,SE,142,2.0,3.4,94,0.18,,,0.05,WUHU216HW,2013-03-10 06:26:00,
2013-03-10 00:31:00,44.4,42.5,29.45,SE,145,2.6,3.4,93,0.16,,,0.05,WUHU216HW,2013-03-10 06:31:00,
2013-03-10 00:36:00,44.5,42.9,29.44,SSE,158,2.9,4.0,94,0.15,,,0.05,WUHU216HW,2013-03-10 06:36:00,
2013-03-10 00:41:00,44.9,43.3,29.43,SE,143,3.4,5.8,94,0.11,,,0.05,WUHU216HW,2013-03-10 06:41:00,
2013-03-10 00:46:00,45.4,43.5,29.43,SE,135,4.0,5.8,93,0.10,,,0.06,WUHU216HW,2013-03-10 06:46:00,
2013-03-10 00:51:00,45.8,43.9,29.42,SSE,158,4.0,5.4,93,0.09,,,0.06,WUHU216HW,2013-03-10 06:51:00,
2013-03-10 00:56:00,46.1,43.8,29.43,South,169,4.6,5.8,92,0.08,,,0.06,WUHU216HW,2013-03-10 06:56:00,
2013-03-10 01:01:00,45.9,43.7,29.43,SE,135,4.0,6.5,92,0.06,,,0.07,WUHU216HW,2013-03-10 07:01:00,
2013-03-10 01:06:00,45.9,43.7,29.43,SSE,159,3.6,6.5,92,0.07,,,0.09,WUHU216HW,2013-03-10 07:06:00,
2013-03-10 01:11:00,45.7,43.5,29.43,SSE,158,3.8,5.6,92,0.07,,,0.10,WUHU216HW,2013-03-10 07:11:00,
2013-03-10 01:16:00,45.5,43.6,29.43,SE,138,2.9,5.1,93,0.09,,,0.13,WUHU216HW,2013-03-10 07:16:00,
2013-03-10 01:21:00,45.5,43.6,29.43,SSW,203,5.4,5.4,93,0.12,,,0.16,WUHU216HW,2013-03-10 07:21:00,
2013-03-10 01:26:00,45.5,43.6,29.43,South,169,4.4,6.0,93,0.14,,,0.19,WUHU216HW,2013-03-10 07:26:00,
2013-03-10 01:31:00,45.4,43.5,29.43,SSE,147,3.8,6.0,93,0.16,,,0.21,WUHU216HW,2013-03-10 07:31:00,
2013-03-10 01:36:00,45.6,43.9,29.43,SSE,149,3.5,6.3,94,0.17,,,0.22,WUHU216HW,2013-03-10 07:36:00,
2013-03-10 01:41:00,45.3,43.6,29.43,SSE,154,3.5,7.2,94,0.18,,,0.24,WUHU216HW,2013-03-10 07:41:00,
2013-03-10 01:46:00,45.3,43.6,29.42,SSE,159,2.6,7.2,94,0.19,,,0.25,WUHU216HW,2013-03-10 07:46:00,
2013-03-10 01:51:00,45.5,43.8,29.43,SSE,162,3.3,4.0,94,0.20,,,0.26,WUHU216HW,2013-03-10 07:51:00,
2013-03-10 01:56:00,45.6,43.9,29.42,SSE,165,2.7,4.0,94,0.21,,,0.27,WUHU216HW,2013-03-10 07:56:00,
2013-03-10 03:01:00,45.6,43.9,29.42,SSE,157,1.6,3.4,94,0.20,,,0.48,WUHU216HW,2013-03-10 08:01:00,
2013-03-10 03:06:00,45.8,44.1,29.42,SSE,164,1.7,3.1,94,0.19,,,0.48,WUHU216HW,2013-03-10 08:06:00,
2013-03-10 03:11:00,45.6,43.9,29.42,SSE,153,1.4,3.4,94,0.19,,,0.49,WUHU216HW,2013-03-10 08:11:00,
2013-03-10 03:16:00,45.8,44.1,29.42,SSE,149,2.2,3.6,94,0.16,,,0.49,WUHU216HW,2013-03-10 08:16:00,
2013-03-10 03:21:00,45.8,44.1,29.42,SSE,149,2.5,4.3,94,0.11,,,0.49,WUHU216HW,2013-03-10 08:21:00,
2013-03-10 03:26:00,45.7,44.1,29.42,SSE,160,2.6,4.3,94,0.10,,,0.50,WUHU216HW,2013-03-10 08:26:00,
2013-03-10 03:31:00,45.7,44.1,29.42,South,184,3.9,5.1,94,0.09,,,0.50,WUHU216HW,2013-03-10 08:31:00,
2013-03-10 03:36:00,45.9,44.3,29.42,SSE,153,3.2,5.6,94,0.07,,,0.50,WUHU216HW,2013-03-10 08:36:00,
2013-03-10 03:41:00,45.7,44.1,29.41,South,171,2.6,5.6,94,0.06,,,0.51,WUHU216HW,2013-03-10 08:41:00,
2013-03-10 03:46:00,45.9,44.3,29.41,SSE,157,3.0,5.4,94,0.05,,,0.51,WUHU216HW,2013-03-10 08:46:00,
2013-03-10 03:51:00,45.9,44.2,29.41,SSE,159,1.9,5.4,94,0.04,,,0.51,WUHU216HW,2013-03-10 08:51:00,
2013-03-10 03:56:00,46.1,44.4,29.41,SSE,158,1.8,3.4,94,0.04,,,0.51,WUHU216HW,2013-03-10 08:56:00,
2013-03-10 04:01:00,46.3,44.6,29.40,South,174,2.1,3.1,94,0.03,,,0.51,WUHU216HW,2013-03-10 09:01:00,
2013-03-10 04:06:00,46.2,44.6,29.41,South,180,2.5,3.1,94,0.02,,,0.51,WUHU216HW,2013-03-10 09:06:00,
2013-03-10 04:11:00,46.0,44.4,29.41,SSW,199,1.0,2.5,94,0.03,,,0.52,WUHU216HW,2013-03-10 09:11:00,
2013-03-10 04:16:00,46.2,44.6,29.41,SSE,166,0.7,2.7,94,0.03,,,0.52,WUHU216HW,2013-03-10 09:16:00,
2013-03-10 04:21:00,46.0,44.4,29.41,SE,135,1.1,2.7,94,0.03,,,0.53,WUHU216HW,2013-03-10 09:21:00,
2013-03-10 04:26:00,46.2,44.5,29.41,SSE,158,2.9,3.4,94,0.03,,,0.53,WUHU216HW,2013-03-10 09:26:00,
2013-03-10 04:31:00,46.3,44.6,29.40,SE,145,2.1,4.0,94,0.03,,,0.53,WUHU216HW,2013-03-10 09:31:00,
2013-03-10 04:36:00,46.2,44.6,29.39,SE,135,1.4,4.0,94,0.02,,,0.53,WUHU216HW,2013-03-10 09:36:00,
2013-03-10 04:41:00,46.1,44.5,29.38,ESE,113,0.4,2.0,94,0.02,,,0.53,WUHU216HW,2013-03-10 09:41:00,
2013-03-10 04:46:00,46.1,44.5,29.37,SE,135,1.1,1.8,94,0.02,,,0.53,WUHU216HW,2013-03-10 09:46:00,
2013-03-10 04:51:00,46.2,44.5,29.35,SE,136,1.1,3.4,94,0.02,,,0.53,WUHU216HW,2013-03-10 09:51:00,
2013-03-10 04:56:00,46.6,45.2,29.37,SE,135,2.5,3.4,95,0.02,,,0.53,WUHU216HW,2013-03-10 09:56:00,
2013-03-10 05:01:00,46.3,44.7,29.37,East,90,0.7,3.4,94,0.02,,,0.53,WUHU216HW,2013-03-10 10:01:00,
2013-03-10 05:06:00,46.1,44.5,29.32,ESE,113,3.4,3.4,94,0.02,,,0.53,WUHU216HW,2013-03-10 10:06:00,
2013-03-10 05:11:00,46.0,44.3,29.28,NE,45,4.7,4.7,94,0.01,,,0.53,WUHU216HW,2013-03-10 10:11:00,
2013-03-10 05:16:00,46.0,44.3,29.29,SE,132,3.3,5.1,94,0.01,,,0.54,WUHU216HW,2013-03-10 10:16:00,
2013-03-10 05:21:00,45.9,44.3,29.32,SE,136,1.3,5.1,94,0.01,,,0.54,WUHU216HW,2013-03-10 10:21:00,
2013-03-10 05:26:00,45.9,44.3,29.35,SSW,203,2.2,3.4,94,0.01,,,0.54,WUHU216HW,2013-03-10 10:26:00,
2013-03-10 05:31:00,45.5,43.9,29.40,SW,228,2.8,4.0,94,0.01,,,0.54,WUHU216HW,2013-03-10 10:31:00,
2013-03-10 05:36:00,45.7,44.0,29.40,South,181,1.4,4.7,94,0.01,,,0.54,WUHU216HW,2013-03-10 10:36:00,
2013-03-10 05:41:00,45.4,43.8,29.40,South,186,0.5,4.7,94,0.01,,,0.54,WUHU216HW,2013-03-10 10:41:00,
2013-03-10 05:46:00,45.4,43.8,29.41,SSE,158,1.6,2.5,94,0.01,,,0.54,WUHU216HW,2013-03-10 10:46:00,
2013-03-10 05:51:00,45.4,43.7,29.41,SE,135,1.1,2.0,94,0.01,,,0.54,WUHU216HW,2013-03-10 10:51:00,
2013-03-10 05:56:00,45.2,43.5,29.41,SSE,158,1.3,2.0,94,0.01,,,0.54,WUHU216HW,2013-03-10 10:56:00,
2013-03-10 06:01:00,45.1,43.5,29.41,SSE,158,1.1,1.8,94,0.01,,,0.54,WUHU216HW,2013-03-10 11:01:00,
2013-03-10 06:06:00,45.1,43.5,29.41,SSE,159,0.8,1.8,94,0.01,,,0.54,WUHU216HW,2013-03-10 11:06:00,
2013-03-10 06:11:00,45.3,43.6,29.41,SSE,151,2.6,4.0,94,0.01,,,0.54,WUHU216HW,2013-03-10 11:11:00,
2013-03-10 06:16:00,45.3,43.6,29.41,SSE,148,1.1,4.0,94,0.00,,,0.54,WUHU216HW,2013-03-10 11:16:00,
2013-03-10 06:21:00,44.8,43.2,29.40,SSE,157,1.4,3.6,94,0.00,,,0.54,WUHU216HW,2013-03-10 11:21:00,
2013-03-10 06:26:00,44.7,43.1,29.40,SSE,147,1.2,3.6,94,0.00,,,0.54,WUHU216HW,2013-03-10 11:26:00,
2013-03-10 06:31:00,44.5,42.8,29.39,ESE,119,0.7,2.5,94,0.00,,,0.54,WUHU216HW,2013-03-10 11:31:00,
2013-03-10 06:36:00,44.0,42.4,29.38,ESE,113,0.4,1.6,94,0.00,,,0.54,WUHU216HW,2013-03-10 11:36:00,
2013-03-10 06:41:00,43.7,42.1,29.38,East,80,0.7,1.1,94,0.00,,,0.54,WUHU216HW,2013-03-10 11:41:00,
2013-03-10 06:46:00,43.7,42.1,29.38,East,90,0.2,1.1,94,0.00,,,0.54,WUHU216HW,2013-03-10 11:46:00,
2013-03-10 06:51:00,43.3,41.6,29.39,East,90,0.0,0.4,94,0.00,,,0.54,WUHU216HW,2013-03-10 11:51:00,
2013-03-10 06:56:00,43.0,41.4,29.39,ENE,60,0.3,0.4,94,0.00,,,0.54,WUHU216HW,2013-03-10 11:56:00,
2013-03-10 07:01:00,43.0,41.4,29.39,ESE,113,0.4,0.4,94,0.00,,,0.54,WUHU216HW,2013-03-10 12:01:00,
2013-03-10 07:06:00,43.0,41.4,29.40,SE,135,0.7,0.7,94,0.00,,,0.54,WUHU216HW,2013-03-10 12:06:00,
2013-03-10 07:11:00,43.2,41.6,29.41,SSE,162,1.6,2.5,94,0.00,,,0.54,WUHU216HW,2013-03-10 12:11:00,
2013-03-10 07:16:00,43.2,41.6,29.42,SSE,163,0.3,2.5,94,0.00,,,0.54,WUHU216HW,2013-03-10 12:16:00,
2013-03-10 07:21:00,43.2,41.6,29.42,SSE,158,0.5,1.1,94,0.00,,,0.54,WUHU216HW,2013-03-10 12:21:00,
2013-03-10 07:26:00,43.0,41.4,29.42,SE,124,0.5,1.1,94,0.00,,,0.54,WUHU216HW,2013-03-10 12:26:00,
2013-03-10 07:31:00,42.8,41.2,29.42,ESE,113,0.3,0.7,94,0.00,,,0.54,WUHU216HW,2013-03-10 12:31:00,
2013-03-10 07:36:00,42.8,41.2,29.41,ESE,113,0.0,0.4,94,0.00,,,0.54,WUHU216HW,2013-03-10 12:36:00,
2013-03-10 07:41:00,42.7,41.1,29.41,NNE,23,0.4,0.4,94,0.00,,,0.54,WUHU216HW,2013-03-10 12:41:00,
2013-03-10 07:46:00,42.5,40.9,29.41,ESE,113,0.0,0.4,94,0.00,,,0.54,WUHU216HW,2013-03-10 12:46:00,
2013-03-10 07:51:00,42.5,40.9,29.42,SSE,158,0.4,0.9,94,0.00,,,0.54,WUHU216HW,2013-03-10 12:51:00,
2013-03-10 07:56:00,42.7,41.1,29.42,SSE,158,0.4,1.3,94,0.00,,,0.54,WUHU216HW,2013-03-10 12:56:00,
2013-03-10 08:01:00,42.7,41.1,29.42,SE,126,0.5,1.3,94,0.00,,,0.54,WUHU216HW,2013-03-10 13:01:00,
2013-03-10 08:06:00,42.7,41.1,29.43,SE,135,1.1,1.1,94,0.00,,,0.54,WUHU216HW,2013-03-10 13:06:00,
2013-03-10 08:11:00,42.8,41.2,29.42,SE,145,0.9,2.2,94,0.00,,,0.54,WUHU216HW,2013-03-10 13:11:00,
2013-03-10 08:16:00,42.8,41.2,29.43,SSE,157,0.4,2.2,94,0.00,,,0.54,WUHU216HW,2013-03-10 13:16:00,
2013-03-10 08:21:00,42.7,41.1,29.42,SE,135,1.1,1.1,94,0.00,,,0.54,WUHU216HW,2013-03-10 13:21:00,
2013-03-10 08:26:00,42.7,41.1,29.42,ESE,120,0.3,1.1,94,0.00,,,0.54,WUHU216HW,2013-03-10 13:26:00,
2013-03-10 08:31:00,42.7,41.1,29.41,SE,135,0.0,1.1,94,0.00,,,0.54,WUHU216HW,2013-03-10 13:31:00,
2013-03-10 08:36:00,42.8,41.2,29.41,ESE,113,0.2,1.1,94,0.00,,,0.54,WUHU216HW,2013-03-10 13:36:00,
2013-03-10 08:41:00,42.8,41.2,29.41,SE,146,0.5,0.9,94,0.00,,,0.54,WUHU216HW,2013-03-10 13:41:00,
2013-03-10 08:46:00,42.8,41.2,29.41,SE,134,0.4,0.7,94,0.00,,,0.54,WUHU216HW,2013-03-10 13:46:00,
2013-03-10 08:51:00,42.8,41.2,29.41,ESE,113,0.0,0.4,94,0.00,,,0.54,WUHU216HW,2013-03-10 13:51:00,
2013-03-10 08:56:00,43.0,41.4,29.41,East,96,0.3,0.4,94,0.00,,,0.54,WUHU216HW,2013-03-10 13:56:00,
2013-03-10 09:01:00,43.0,41.4,29.41,East,95,0.3,0.4,94,0.00,,,0.54,WUHU216HW,2013-03-10 14:01:00,
2013-03-10 09:06:00,43.2,41.6,29.40,ESE,113,0.4,0.9,94,0.00,,,0.54,WUHU216HW,2013-03-10 14:06:00,
2013-03-10 09:11:00,43.2,41.6,29.40,ENE,68,0.0,0.9,94,0.00,,,0.54,WUHU216HW,2013-03-10 14:11:00,
2013-03-10 09:16:00,43.2,41.6,29.41,ENE,68,0.2,0.9,94,0.00,,,0.54,WUHU216HW,2013-03-10 14:16:00,
2013-03-10 09:21:00,43.4,41.8,29.41,SE,135,0.7,1.1,94,0.00,,,0.54,WUHU216HW,2013-03-10 14:21:00,
2013-03-10 09:26:00,43.6,42.0,29.42,East,89,0.3,1.1,94,0.00,,,0.54,WUHU216HW,2013-03-10 14:26:00,
2013-03-10 09:31:00,43.7,42.1,29.42,SE,146,0.3,0.9,94,0.00,,,0.54,WUHU216HW,2013-03-10 14:31:00,
2013-03-10 09:36:00,43.9,42.3,29.42,SE,131,0.7,0.9,94,0.00,,,0.54,WUHU216HW,2013-03-10 14:36:00,
2013-03-10 09:41:00,43.9,42.3,29.43,ESE,113,0.4,0.9,94,0.00,,,0.54,WUHU216HW,2013-03-10 14:41:00,
2013-03-10 09:46:00,43.9,42.3,29.42,East,90,0.2,0.4,94,0.00,,,0.54,WUHU216HW,2013-03-10 14:46:00,
2013-03-10 09:51:00,43.7,42.1,29.43,NNW,338,0.2,0.4,94,0.00,,,0.54,WUHU216HW,2013-03-10 14:51:00,
2013-03-10 09:56:00,43.2,41.6,29.43,NNW,338,0.0,0.4,94,0.00,,,0.54,WUHU216HW,2013-03-10 14:56:00,
2013-03-10 10:01:00,42.8,41.2,29.43,NNW,338,0.0,0.0,94,0.00,,,0.54,WUHU216HW,2013-03-10 15:01:00,
2013-03-10 10:06:00,43.0,41.4,29.43,NNW,338,0.0,0.0,94,0.00,,,0.54,WUHU216HW,2013-03-10 15:06:00,
2013-03-10 10:11:00,43.2,41.6,29.43,NNW,338,0.0,0.0,94,0.00,,,0.54,WUHU216HW,2013-03-10 15:11:00,
2013-03-10 10:16:00,43.2,41.6,29.43,NW,326,0.3,0.4,94,0.00,,,0.54,WUHU216HW,2013-03-10 15:16:00,
2013-03-10 10:21:00,42.8,41.2,29.43,North,0,0.8,1.1,94,0.00,,,0.54,WUHU216HW,2013-03-10 15:21:00,
2013-03-10 10:26:00,42.7,41.1,29.42,North,10,0.6,1.1,94,0.01,,,0.55,WUHU216HW,2013-03-10 15:26:00,
2013-03-10 10:31:00,42.8,41.2,29.42,NE,45,0.0,0.9,94,0.01,,,0.55,WUHU216HW,2013-03-10 15:31:00,
2013-03-10 10:36:00,42.8,41.2,29.42,NNW,338,0.0,0.2,94,0.01,,,0.55,WUHU216HW,2013-03-10 15:36:00,
2013-03-10 10:41:00,42.5,40.9,29.42,NNW,338,0.2,0.2,94,0.01,,,0.55,WUHU216HW,2013-03-10 15:41:00,
2013-03-10 10:46:00,42.3,40.7,29.42,NNW,338,0.3,0.4,94,0.01,,,0.55,WUHU216HW,2013-03-10 15:46:00,
2013-03-10 10:51:00,42.1,40.5,29.40,NW,319,0.3,0.4,94,0.01,,,0.55,WUHU216HW,2013-03-10 15:51:00,
2013-03-10 10:56:00,42.1,40.5,29.39,NNW,338,0.4,0.7,94,0.01,,,0.55,WUHU216HW,2013-03-10 15:56:00,
2013-03-10 11:01:00,42.1,40.5,29.38,NNW,341,0.6,0.9,94,0.01,,,0.55,WUHU216HW,2013-03-10 16:01:00,
2013-03-10 11:06:00,42.1,40.5,29.39,North,355,0.4,0.9,94,0.01,,,0.55,WUHU216HW,2013-03-10 16:06:00,
2013-03-10 11:11:00,42.1,40.5,29.40,NNW,338,0.2,0.7,94,0.01,,,0.55,WUHU216HW,2013-03-10 16:11:00,
2013-03-10 11:16:00,42.1,40.5,29.41,NNW,338,0.2,0.7,94,0.01,,,0.55,WUHU216HW,2013-03-10 16:16:00,
2013-03-10 11:21:00,42.1,40.5,29.41,NNW,338,0.0,0.2,94,0.01,,,0.55,WUHU216HW,2013-03-10 16:21:00,
2013-03-10 11:26:00,42.1,40.8,29.41,NNW,338,0.4,0.4,95,0.00,,,0.55,WUHU216HW,2013-03-10 16:26:00,
2013-03-10 11:31:00,42.1,40.5,29.40,NNW,338,0.3,0.7,94,0.01,,,0.56,WUHU216HW,2013-03-10 16:31:00,
2013-03-10 11:36:00,41.9,40.3,29.40,NNW,343,0.3,0.7,94,0.01,,,0.56,WUHU216HW,2013-03-10 16:36:00,
2013-03-10 11:41:00,41.9,40.6,29.41,NNW,338,0.2,0.7,95,0.01,,,0.56,WUHU216HW,2013-03-10 16:41:00,
2013-03-10 11:46:00,41.8,40.2,29.41,North,356,0.5,1.1,94,0.02,,,0.57,WUHU216HW,2013-03-10 16:46:00,
2013-03-10 11:51:00,41.8,40.2,29.41,NNW,341,0.3,1.1,94,0.02,,,0.57,WUHU216HW,2013-03-10 16:51:00,
2013-03-10 11:56:00,41.6,40.0,29.41,NNW,338,0.0,0.9,94,0.03,,,0.58,WUHU216HW,2013-03-10 16:56:00,
2013-03-10 12:01:00,41.4,39.8,29.42,North,0,0.0,0.9,94,0.03,,,0.58,WUHU216HW,2013-03-10 17:01:00,
2013-03-10 12:06:00,41.4,39.8,29.42,NNW,338,0.4,0.4,94,0.04,,,0.59,WUHU216HW,2013-03-10 17:06:00,
2013-03-10 12:11:00,41.2,39.9,29.41,NNW,330,0.3,0.4,95,0.04,,,0.59,WUHU216HW,2013-03-10 17:11:00,
2013-03-10 12:16:00,41.2,39.9,29.41,NW,320,0.3,0.4,95,0.04,,,0.59,WUHU216HW,2013-03-10 17:16:00,
2013-03-10 12:21:00,41.4,40.1,29.41,NNW,338,0.2,0.4,95,0.06,,,0.61,WUHU216HW,2013-03-10 17:21:00,
2013-03-10 12:26:00,41.4,40.1,29.40,NNW,338,0.4,0.7,95,0.06,,,0.61,WUHU216HW,2013-03-10 17:26:00,
2013-03-10 12:31:00,41.4,40.0,29.40,North,6,0.8,1.1,95,0.07,,,0.63,WUHU216HW,2013-03-10 17:31:00,
2013-03-10 12:36:00,41.1,39.8,29.40,North,356,0.9,1.6,95,0.08,,,0.64,WUHU216HW,2013-03-10 17:36:00,
2013-03-10 12:41:00,40.8,39.5,29.40,North,0,1.1,1.6,95,0.09,,,0.65,WUHU216HW,2013-03-10 17:41:00,
2013-03-10 12:46:00,40.9,39.6,29.40,North,0,0.4,1.8,95,0.09,,,0.66,WUHU216HW,2013-03-10 17:46:00,
2013-03-10 12:51:00,40.6,39.3,29.39,North,0,0.9,1.8,95,0.10,,,0.67,WUHU216HW,2013-03-10 17:51:00,
2013-03-10 12:56:00,40.5,39.2,29.39,North,0,0.4,1.1,95,0.09,,,0.67,WUHU216HW,2013-03-10 17:56:00,
2013-03-10 13:01:00,40.4,39.0,29.39,NW,315,0.7,1.1,95,0.10,,,0.68,WUHU216HW,2013-03-10 18:01:00,
2013-03-10 13:06:00,40.4,39.0,29.39,NNW,338,0.2,0.7,95,0.09,,,0.68,WUHU216HW,2013-03-10 18:06:00,
2013-03-10 13:11:00,40.3,39.0,29.39,NW,315,0.0,0.4,95,0.10,,,0.70,WUHU216HW,2013-03-10 18:11:00,
2013-03-10 13:16:00,40.4,39.1,29.40,NNW,338,0.2,0.4,95,0.09,,,0.70,WUHU216HW,2013-03-10 18:16:00,
2013-03-10 13:21:00,40.3,39.0,29.40,NE,34,0.6,1.3,95,0.08,,,0.70,WUHU216HW,2013-03-10 18:21:00,
2013-03-10 13:26:00,40.3,38.7,29.39,ENE,68,2.5,3.4,94,0.08,,,0.70,WUHU216HW,2013-03-10 18:26:00,
2013-03-10 13:31:00,40.2,38.9,29.39,NE,36,2.2,3.4,95,0.07,,,0.70,WUHU216HW,2013-03-10 18:31:00,
2013-03-10 13:36:00,40.1,38.8,29.39,NE,36,0.8,3.4,95,0.06,,,0.71,WUHU216HW,2013-03-10 18:36:00,
2013-03-10 13:41:00,40.2,38.9,29.39,ESE,114,0.7,2.5,95,0.06,,,0.72,WUHU216HW,2013-03-10 18:41:00,
2013-03-10 13:46:00,40.2,38.8,29.39,ENE,72,0.3,1.8,95,0.06,,,0.72,WUHU216HW,2013-03-10 18:46:00,
2013-03-10 13:51:00,40.1,38.8,29.39,NE,51,1.3,2.5,95,0.06,,,0.73,WUHU216HW,2013-03-10 18:51:00,
2013-03-10 13:56:00,40.4,39.1,29.38,NE,53,1.6,3.1,95,0.05,,,0.73,WUHU216HW,2013-03-10 18:56:00,
2013-03-10 14:01:00,40.5,39.1,29.37,North,357,0.9,3.1,95,0.06,,,0.74,WUHU216HW,2013-03-10 19:01:00,
2013-03-10 14:06:00,40.6,39.3,29.37,NE,37,1.4,2.0,95,0.06,,,0.75,WUHU216HW,2013-03-10 19:06:00,
2013-03-10 14:11:00,41.0,39.6,29.35,WNW,293,0.4,2.0,95,0.07,,,0.77,WUHU216HW,2013-03-10 19:11:00,
2013-03-10 14:16:00,41.1,39.8,29.35,SW,225,0.0,0.4,95,0.08,,,0.77,WUHU216HW,2013-03-10 19:16:00,
2013-03-10 14:21:00,41.1,39.7,29.37,South,180,0.4,0.4,95,0.08,,,0.77,WUHU216HW,2013-03-10 19:21:00,
2013-03-10 14:26:00,41.0,39.7,29.37,East,90,0.2,0.4,95,0.08,,,0.79,WUHU216HW,2013-03-10 19:26:00,
2013-03-10 14:31:00,41.1,39.7,29.36,NE,45,0.2,0.4,95,0.08,,,0.79,WUHU216HW,2013-03-10 19:31:00,
2013-03-10 14:36:00,41.2,39.9,29.37,SSW,203,0.0,0.4,95,0.07,,,0.79,WUHU216HW,2013-03-10 19:36:00,
2013-03-10 14:41:00,41.6,40.2,29.37,SSW,203,0.0,0.4,95,0.07,,,0.79,WUHU216HW,2013-03-10 19:41:00,
2013-03-10 14:46:00,41.7,40.4,29.37,SSW,203,0.2,0.2,95,0.07,,,0.81,WUHU216HW,2013-03-10 19:46:00,
2013-03-10 14:51:00,41.7,40.4,29.37,SSW,203,0.0,0.2,95,0.07,,,0.81,WUHU216HW,2013-03-10 19:51:00,
2013-03-10 14:56:00,42.0,40.7,29.37,North,0,0.0,0.2,95,0.06,,,0.81,WUHU216HW,2013-03-10 19:56:00,
2013-03-10 15:01:00,42.0,40.3,29.36,NNE,23,1.1,1.3,94,0.06,,,0.81,WUHU216HW,2013-03-10 20:01:00,
2013-03-10 15:06:00,41.6,40.0,29.37,NNE,17,0.9,1.6,94,0.06,,,0.81,WUHU216HW,2013-03-10 20:06:00,
2013-03-10 15:11:00,41.6,40.0,29.36,NNW,340,0.5,1.6,94,0.05,,,0.81,WUHU216HW,2013-03-10 20:11:00,
2013-03-10 15:16:00,41.6,40.0,29.36,NNW,335,0.5,0.9,94,0.04,,,0.81,WUHU216HW,2013-03-10 20:16:00,
2013-03-10 15:22:00,41.4,39.8,29.36,NNE,16,0.6,1.1,94,0.05,,,0.83,WUHU216HW,2013-03-10 20:22:00,
2013-03-10 15:27:00,41.4,39.8,29.36,North,0,0.0,1.1,94,0.04,,,0.83,WUHU216HW,2013-03-10 20:27:00,
2013-03-10 15:32:00,41.2,39.6,29.36,NNE,21,1.2,2.0,94,0.03,,,0.83,WUHU216HW,2013-03-10 20:32:00,
2013-03-10 15:37:00,41.2,39.6,29.35,North,0,1.1,2.0,94,0.03,,,0.83,WUHU216HW,2013-03-10 20:37:00,
2013-03-10 15:42:00,41.0,39.4,29.33,North,7,2.7,4.0,94,0.03,,,0.83,WUHU216HW,2013-03-10 20:42:00,
2013-03-10 15:47:00,41.0,39.4,29.33,NNE,23,1.3,4.0,94,0.03,,,0.84,WUHU216HW,2013-03-10 20:47:00,
2013-03-10 15:52:00,41.2,39.6,29.33,NNW,338,0.6,2.5,94,0.03,,,0.84,WUHU216HW,2013-03-10 20:52:00,
2013-03-10 15:57:00,41.3,39.6,29.33,NE,34,1.8,3.1,94,0.02,,,0.84,WUHU216HW,2013-03-10 20:57:00,
2013-03-10 16:02:00,41.3,39.7,29.32,NNW,345,0.7,3.1,94,0.03,,,0.84,WUHU216HW,2013-03-10 21:02:00,
2013-03-10 16:07:00,41.5,39.9,29.32,SW,225,0.0,2.0,94,0.03,,,0.84,WUHU216HW,2013-03-10 21:07:00,
2013-03-10 16:12:00,41.5,39.9,29.29,ENE,68,3.1,3.1,94,0.03,,,0.84,WUHU216HW,2013-03-10 21:12:00,
2013-03-10 16:17:00,41.4,39.7,29.29,NNE,23,2.0,3.4,94,0.03,,,0.84,WUHU216HW,2013-03-10 21:17:00,
2013-03-10 16:22:00,41.4,39.8,29.27,North,5,2.6,4.0,94,0.02,,,0.84,WUHU216HW,2013-03-10 21:22:00,
2013-03-10 16:27:00,41.8,40.2,29.26,NNE,22,2.5,4.0,94,0.02,,,0.84,WUHU216HW,2013-03-10 21:27:00,
2013-03-10 16:32:00,42.0,40.4,29.26,NE,45,2.5,3.8,94,0.02,,,0.84,WUHU216HW,2013-03-10 21:32:00,
2013-03-10 16:37:00,42.0,40.4,29.26,North,5,1.1,3.8,94,0.02,,,0.84,WUHU216HW,2013-03-10 21:37:00,
2013-03-10 16:42:00,42.0,40.4,29.26,North,0,2.5,4.0,94,0.02,,,0.84,WUHU216HW,2013-03-10 21:42:00,
2013-03-10 16:47:00,42.0,40.4,29.27,NNE,17,1.6,5.4,94,0.01,,,0.84,WUHU216HW,2013-03-10 21:47:00,
2013-03-10 16:52:00,41.9,40.3,29.28,NE,54,0.4,5.4,94,0.01,,,0.84,WUHU216HW,2013-03-10 21:52:00,
2013-03-10 16:57:00,41.9,40.3,29.29,NNW,348,0.5,4.5,94,0.01,,,0.84,WUHU216HW,2013-03-10 21:57:00,
2013-03-10 17:02:00,42.0,40.4,29.29,West,269,0.6,2.0,94,0.00,,,0.84,WUHU216HW,2013-03-10 22:02:00,
2013-03-10 17:07:00,41.9,40.2,29.30,NNW,338,0.0,1.1,94,0.00,,,0.84,WUHU216HW,2013-03-10 22:07:00,
2013-03-10 17:12:00,41.9,40.3,29.31,SW,225,0.9,1.1,94,0.00,,,0.84,WUHU216HW,2013-03-10 22:12:00,
2013-03-10 17:17:00,41.8,40.2,29.31,WSW,248,0.0,1.1,94,0.00,,,0.84,WUHU216HW,2013-03-10 22:17:00,
2013-03-10 17:22:00,41.9,40.2,29.32,SW,225,0.4,1.1,94,0.01,,,0.86,WUHU216HW,2013-03-10 22:22:00,
2013-03-10 17:27:00,41.9,40.3,29.32,SSE,158,0.7,0.9,94,0.01,,,0.86,WUHU216HW,2013-03-10 22:27:00,
2013-03-10 17:32:00,42.2,40.6,29.33,SW,223,0.6,1.1,94,0.01,,,0.86,WUHU216HW,2013-03-10 22:32:00,
2013-03-10 17:37:00,41.9,40.3,29.33,South,180,0.0,1.1,94,0.03,,,0.88,WUHU216HW,2013-03-10 22:37:00,
2013-03-10 17:42:00,42.0,40.3,29.34,South,175,0.3,1.1,94,0.04,,,0.89,WUHU216HW,2013-03-10 22:42:00,
2013-03-10 17:47:00,42.2,40.6,29.35,SW,234,0.5,1.1,94,0.06,,,0.91,WUHU216HW,2013-03-10 22:47:00,
2013-03-10 17:52:00,42.0,40.4,29.34,North,0,0.4,1.1,94,0.09,,,0.94,WUHU216HW,2013-03-10 22:52:00,
2013-03-10 17:57:00,41.9,40.3,29.34,NNW,338,0.2,1.1,94,0.12,,,0.97,WUHU216HW,2013-03-10 22:57:00,
2013-03-10 18:03:00,41.8,40.2,29.34,NNW,338,0.0,1.1,94,0.14,,,0.99,WUHU216HW,2013-03-10 23:03:00,
2013-03-10 18:08:00,41.7,40.1,29.34,SSE,158,0.7,0.7,94,0.15,,,1.00,WUHU216HW,2013-03-10 23:08:00,
2013-03-10 18:13:00,41.6,39.9,29.34,SW,214,0.3,0.7,94,0.16,,,1.01,WUHU216HW,2013-03-10 23:13:00,
2013-03-10 18:18:00,41.5,39.9,29.33,East,90,0.9,0.9,94,0.17,,,1.02,WUHU216HW,2013-03-10 23:18:00,
2013-03-10 18:23:00,41.4,39.8,29.33,NE,49,0.4,1.1,94,0.18,,,1.04,WUHU216HW,2013-03-10 23:23:00,
2013-03-10 18:28:00,41.5,40.2,29.33,ENE,68,0.4,1.1,95,0.19,,,1.05,WUHU216HW,2013-03-10 23:28:00,
2013-03-10 18:33:00,41.4,39.8,29.33,SSE,158,0.0,0.4,94,0.18,,,1.05,WUHU216HW,2013-03-10 23:33:00,
2013-03-10 18:38:00,41.4,39.8,29.33,NW,315,0.0,0.4,94,0.18,,,1.06,WUHU216HW,2013-03-10 23:38:00,
2013-03-10 18:43:00,41.4,39.8,29.32,North,0,1.1,1.1,94,0.17,,,1.06,WUHU216HW,2013-03-10 23:43:00,
2013-03-10 18:48:00,41.4,39.8,29.33,NNW,339,0.6,1.3,94,0.15,,,1.06,WUHU216HW,2013-03-10 23:48:00,
2013-03-10 18:53:00,41.2,39.6,29.33,NNW,327,0.2,1.3,94,0.10,,,1.06,WUHU216HW,2013-03-10 23:53:00,
2013-03-10 18:58:00,41.0,39.4,29.33,WNW,293,0.0,0.4,94,0.08,,,1.06,WUHU216HW,2013-03-10 23:58:00,
2013-03-10 19:03:00,40.9,39.3,29.33,WNW,293,0.0,0.4,94,0.07,,,1.06,WUHU216HW,2013-03-11 00:03:00,
2013-03-10 19:08:00,40.7,39.1,29.33,WNW,300,0.3,0.4,94,0.05,,,1.06,WUHU216HW,2013-03-11 00:08:00,
2013-03-10 19:13:00,40.7,39.1,29.33,NNW,338,0.2,0.4,94,0.04,,,1.06,WUHU216HW,2013-03-11 00:13:00,
2013-03-10 19:18:00,40.7,39.4,29.33,NNW,338,0.0,0.4,95,0.04,,,1.07,WUHU216HW,2013-03-11 00:18:00,
2013-03-10 19:23:00,40.5,38.9,29.33,NNW,338,0.0,0.4,94,0.03,,,1.07,WUHU216HW,2013-03-11 00:23:00,
2013-03-10 19:28:00,40.3,38.7,29.33,NNW,338,0.0,0.2,94,0.03,,,1.08,WUHU216HW,2013-03-11 00:28:00,
2013-03-10 19:33:00,40.1,38.5,29.34,SSE,162,0.4,0.4,94,0.02,,,1.08,WUHU216HW,2013-03-11 00:33:00,
2013-03-10 19:38:00,40.0,38.7,29.34,SW,225,0.0,0.4,95,0.03,,,1.08,WUHU216HW,2013-03-11 00:38:00,
2013-03-10 19:43:00,40.0,38.7,29.34,SW,225,0.0,0.2,95,0.03,,,1.09,WUHU216HW,2013-03-11 00:43:00,
2013-03-10 19:48:00,40.0,38.4,29.35,South,181,0.7,0.7,94,0.04,,,1.10,WUHU216HW,2013-03-11 00:48:00,
2013-03-10 19:53:00,40.0,38.4,29.35,South,181,0.6,0.9,94,0.04,,,1.10,WUHU216HW,2013-03-11 00:53:00,
2013-03-10 20:05:00,40.0,38.4,29.35,South,180,0.7,1.3,94,0.04,,,1.10,WUHU216HW,2013-03-11 01:05:00,
2013-03-10 20:10:00,39.6,38.0,29.35,WSW,248,0.0,1.1,94,0.04,,,1.10,WUHU216HW,2013-03-11 01:10:00,
2013-03-10 20:15:00,39.4,37.8,29.35,North,11,0.4,0.4,94,0.03,,,1.10,WUHU216HW,2013-03-11 01:15:00,
2013-03-10 20:20:00,39.4,37.8,29.35,North,0,0.0,0.7,94,0.02,,,1.10,WUHU216HW,2013-03-11 01:20:00,
2013-03-10 20:25:00,39.2,37.6,29.35,North,0,0.0,0.7,94,0.02,,,1.10,WUHU216HW,2013-03-11 01:25:00,
2013-03-10 20:30:00,39.2,37.6,29.35,NNE,23,0.2,0.2,94,0.02,,,1.10,WUHU216HW,2013-03-11 01:30:00,
2013-03-10 20:35:00,39.2,37.6,29.35,NNE,23,0.7,0.7,94,0.02,,,1.10,WUHU216HW,2013-03-11 01:35:00,
2013-03-10 20:40:00,39.2,37.6,29.35,East,97,0.2,0.7,94,0.00,,,1.10,WUHU216HW,2013-03-11 01:40:00,
2013-03-10 20:45:00,39.1,37.5,29.34,NE,48,0.3,0.7,94,0.00,,,1.10,WUHU216HW,2013-03-11 01:45:00,
2013-03-10 20:50:00,38.9,37.3,29.34,NE,45,0.0,0.4,94,0.00,,,1.10,WUHU216HW,2013-03-11 01:50:00,
2013-03-10 20:55:00,38.9,37.3,29.34,NNE,23,0.3,0.4,94,0.00,,,1.10,WUHU216HW,2013-03-11 01:55:00,
2013-03-10 21:00:00,38.7,37.1,29.34,West,270,0.2,0.4,94,0.00,,,1.10,WUHU216HW,2013-03-11 02:00:00,
2013-03-10 21:05:00,38.5,36.9,29.35,West,270,0.0,0.4,94,0.00,,,1.10,WUHU216HW,2013-03-11 02:05:00,
2013-03-10 21:10:00,38.3,36.7,29.35,West,270,0.0,0.4,94,0.00,,,1.10,WUHU216HW,2013-03-11 02:10:00,
2013-03-10 21:15:00,38.0,36.4,29.35,West,270,0.0,0.0,94,0.00,,,1.10,WUHU216HW,2013-03-11 02:15:00,
2013-03-10 21:20:00,37.8,36.2,29.35,West,270,0.0,0.0,94,0.00,,,1.10,WUHU216HW,2013-03-11 02:20:00,
2013-03-10 21:25:00,37.8,36.2,29.35,NNE,23,0.2,0.4,94,0.00,,,1.10,WUHU216HW,2013-03-11 02:25:00,
2013-03-10 21:30:00,37.4,35.8,29.35,NNE,23,0.0,0.4,94,0.00,,,1.10,WUHU216HW,2013-03-11 02:30:00,
2013-03-10 21:35:00,36.9,35.3,29.35,NNE,23,0.0,0.0,94,0.00,,,1.10,WUHU216HW,2013-03-11 02:35:00,
2013-03-10 21:40:00,36.4,34.8,29.35,East,90,0.0,0.0,94,0.00,,,1.10,WUHU216HW,2013-03-11 02:40:00,
2013-03-10 21:45:00,36.4,34.8,29.35,SSE,158,0.2,0.4,94,0.00,,,1.10,WUHU216HW,2013-03-11 02:45:00,
2013-03-10 21:50:00,36.4,34.8,29.36,SSE,158,0.0,0.4,94,0.00,,,1.10,WUHU216HW,2013-03-11 02:50:00,
2013-03-10 21:55:00,36.4,34.8,29.36,SSE,158,0.0,0.0,94,0.00,,,1.10,WUHU216HW,2013-03-11 02:55:00,
2013-03-10 22:00:00,36.4,34.8,29.36,SSE,158,0.0,0.0,94,0.00,,,1.10,WUHU216HW,2013-03-11 03:00:00,
2013-03-10 22:05:00,36.4,34.9,29.36,SSE,158,0.0,0.0,94,0.00,,,1.10,WUHU216HW,2013-03-11 03:05:00,
2013-03-10 22:10:00,36.8,35.2,29.36,SSE,158,0.0,0.0,94,0.00,,,1.10,WUHU216HW,2013-03-11 03:10:00,
2013-03-10 22:15:00,36.8,35.2,29.36,SSE,158,0.0,0.0,94,0.00,,,1.10,WUHU216HW,2013-03-11 03:15:00,
2013-03-10 22:20:00,36.6,35.0,29.37,SSE,158,0.0,0.0,94,0.00,,,1.10,WUHU216HW,2013-03-11 03:20:00,
2013-03-10 22:25:00,36.5,35.0,29.37,SSE,158,0.0,0.0,94,0.00,,,1.10,WUHU216HW,2013-03-11 03:25:00,
2013-03-10 22:30:00,36.4,34.8,29.37,SSE,158,0.0,0.0,94,0.00,,,1.10,WUHU216HW,2013-03-11 03:30:00,
2013-03-10 22:35:00,36.2,34.6,29.37,SSE,158,0.0,0.0,94,0.00,,,1.10,WUHU216HW,2013-03-11 03:35:00,
2013-03-10 22:40:00,36.2,34.7,29.36,North,0,0.2,0.2,94,0.00,,,1.10,WUHU216HW,2013-03-11 03:40:00,
2013-03-10 22:45:00,36.3,34.7,29.37,ESE,113,0.0,0.4,94,0.00,,,1.10,WUHU216HW,2013-03-11 03:45:00,
2013-03-10 22:50:00,36.5,35.2,29.37,SW,225,0.0,0.4,95,0.00,,,1.10,WUHU216HW,2013-03-11 03:50:00,
2013-03-10 22:55:00,36.7,35.4,29.36,SW,225,0.0,0.2,95,0.00,,,1.10,WUHU216HW,2013-03-11 03:55:00,
2013-03-10 23:00:00,36.8,35.5,29.36,SW,225,0.0,0.0,95,0.00,,,1.10,WUHU216HW,2013-03-11 04:00:00,
2013-03-10 23:05:00,36.8,35.5,29.36,North,0,0.4,0.4,95,0.00,,,1.10,WUHU216HW,2013-03-11 04:05:00,
2013-03-10 23:10:00,36.8,35.5,29.36,North,0,0.0,0.4,95,0.00,,,1.10,WUHU216HW,2013-03-11 04:10:00,
2013-03-10 23:15:00,36.8,35.5,29.36,North,0,0.0,0.0,95,0.00,,,1.10,WUHU216HW,2013-03-11 04:15:00,
2013-03-10 23:20:00,37.0,35.6,29.36,NNW,338,0.0,0.2,95,0.00,,,1.10,WUHU216HW,2013-03-11 04:20:00,
2013-03-10 23:25:00,36.9,35.3,29.36,NNW,338,0.0,0.2,94,0.00,,,1.10,WUHU216HW,2013-03-11 04:25:00,
2013-03-10 23:30:00,36.9,35.6,29.36,North,0,0.2,0.4,95,0.00,,,1.10,WUHU216HW,2013-03-11 04:30:00,
2013-03-10 23:35:00,37.0,35.7,29.36,North,0,0.0,0.4,95,0.00,,,1.10,WUHU216HW,2013-03-11 04:35:00,
2013-03-10 23:40:00,37.1,35.5,29.36,North,0,0.2,0.2,94,0.00,,,1.10,WUHU216HW,2013-03-11 04:40:00,
2013-03-10 23:45:00,37.0,35.4,29.36,ESE,113,0.0,0.2,94,0.00,,,1.10,WUHU216HW,2013-03-11 04:45:00,
2013-03-10 23:50:00,37.1,35.5,29.36,ESE,113,0.0,0.0,94,0.00,,,1.10,WUHU216HW,2013-03-11 04:50:00,
2013-03-10 23:55:00,37.1,35.5,29.36,SE,135,0.0,0.0,94,0.00,,,1.10,WUHU216HW,2013-03-11 04:55:00,